Time;durP1;ratioP1;P1;durP2;ratioP2;P2;SDS_P1;SDS_P2;PMS_P1;PMS_P2;Temp;Humidity;BMP_temperature;BMP_pressure;BME280_temperature;BME280_humidity;BME280_pressure;Samples;Min_cycle;Max_cycle;Signal;HPM_P1;HPM_P2
2021/06/24 00:00:48;;;;;;;;;;;15.30;99.90;;;;;;5086535;28;20339;-52
2021/06/24 00:03:14;;;;;;;;;;;15.20;99.90;;;;;;5084096;28;19909;-51
2021/06/24 00:05:40;;;;;;;;;;;15.30;99.90;;;;;;5078351;28;19915;-50
2021/06/24 00:08:09;;;;;;;;;;;15.20;99.90;;;;;;5085020;28;19915;-52
2021/06/24 00:10:35;;;;;;;;;;;15.30;99.90;;;;;;5078380;28;19995;-55
2021/06/24 00:13:01;;;;;;;;;;;15.20;99.90;;;;;;5085693;28;19908;-50
2021/06/24 00:15:27;;;;;;;;;;;15.20;99.90;;;;;;5078300;28;19924;-49
2021/06/24 00:17:53;;;;;;;;;;;15.20;99.90;;;;;;5086762;28;19908;-54
2021/06/24 00:20:18;;;;;;;;;;;15.20;99.90;;;;;;5078889;28;20404;-48
2021/06/24 00:22:44;;;;;;;;;;;15.20;99.90;;;;;;5078348;28;19919;-51
2021/06/24 00:25:10;;;;;;;;;;;15.10;99.90;;;;;;5081089;28;19908;-53
2021/06/24 00:27:35;;;;;;;;;;;15.10;99.90;;;;;;5083179;28;19912;-51
2021/06/24 00:30:01;;;;;;;;;;;15.00;99.90;;;;;;5079843;28;19916;-53
2021/06/24 00:32:28;;;;;;;;;;;15.00;99.90;;;;;;5081735;28;19927;-49
2021/06/24 00:34:59;;;;;;;;;;;15.00;99.90;;;;;;5079267;28;19981;-51
2021/06/24 00:37:25;;;;;;;;;;;14.90;99.90;;;;;;5065214;28;19908;-49
2021/06/24 00:39:50;;;;;;;;;;;15.00;99.90;;;;;;5084511;28;19962;-50
2021/06/24 00:42:16;;;;;;;;;;;15.00;99.90;;;;;;5085748;28;19908;-52
2021/06/24 00:44:41;;;;;;;;;;;15.00;99.90;;;;;;5084088;28;20081;-54
2021/06/24 00:47:07;;;;;;;;;;;14.90;99.90;;;;;;5084439;28;19916;-52
2021/06/24 00:49:33;;;;;;;;;;;14.90;99.90;;;;;;5079794;28;19908;-52
2021/06/24 00:51:58;;;;;;;;;;;14.90;99.90;;;;;;5082744;28;20467;-49
2021/06/24 00:54:24;;;;;;;;;;;14.90;99.90;;;;;;5085503;28;20367;-54
2021/06/24 00:56:49;;;;;;;;;;;14.80;99.90;;;;;;5083864;28;19973;-50
2021/06/24 00:59:15;;;;;;;;;;;14.80;99.90;;;;;;5083506;28;19923;-53
2021/06/24 01:01:40;;;;;;;;;;;14.80;99.90;;;;;;5083773;28;19912;-51
2021/06/24 01:04:06;;;;;;;;;;;14.90;99.90;;;;;;5082604;28;20260;-54
2021/06/24 01:06:33;;;;;;;;;;;14.90;99.90;;;;;;5084857;28;19993;-53
2021/06/24 01:08:58;;;;;;;;;;;14.80;99.90;;;;;;5083003;28;19908;-53
2021/06/24 01:11:24;;;;;;;;;;;14.80;99.90;;;;;;5085208;28;20303;-49
2021/06/24 01:13:50;;;;;;;;;;;14.80;99.90;;;;;;5083992;28;20003;-51
2021/06/24 01:16:16;;;;;;;;;;;14.80;99.90;;;;;;5084984;28;19912;-50
2021/06/24 01:18:41;;;;;;;;;;;14.80;99.90;;;;;;5086119;28;19962;-50
2021/06/24 01:21:07;;;;;;;;;;;14.80;99.90;;;;;;5084097;28;19909;-51
2021/06/24 01:23:37;;;;;;;;;;;14.80;99.90;;;;;;5089807;28;19908;-51
2021/06/24 01:26:02;;;;;;;;;;;14.80;99.90;;;;;;5084333;28;19912;-49
2021/06/24 01:28:28;;;;;;;;;;;14.80;99.90;;;;;;5084731;28;20482;-49
2021/06/24 01:30:53;;;;;;;;;;;14.80;99.90;;;;;;5083925;28;19914;-58
2021/06/24 01:33:19;;;;;;;;;;;14.80;99.90;;;;;;5083579;28;20247;-55
2021/06/24 01:35:44;;;;;;;;;;;14.80;99.90;;;;;;5084274;28;19909;-49
2021/06/24 01:38:11;;;;;;;;;;;14.80;99.90;;;;;;5083420;28;19915;-49
2021/06/24 01:40:37;;;;;;;;;;;14.80;99.90;;;;;;5084646;28;20419;-48
2021/06/24 01:43:03;;;;;;;;;;;14.80;99.90;;;;;;5084153;28;19916;-50
2021/06/24 01:45:28;;;;;;;;;;;14.80;99.90;;;;;;5084303;28;19916;-49
2021/06/24 01:47:54;;;;;;;;;;;14.70;99.90;;;;;;5082891;28;19912;-56
2021/06/24 01:50:20;;;;;;;;;;;14.70;99.90;;;;;;5082324;28;19915;-57
2021/06/24 01:52:46;;;;;;;;;;;14.60;99.90;;;;;;5076407;28;20502;-52
2021/06/24 01:55:13;;;;;;;;;;;14.60;99.90;;;;;;5083675;28;19915;-52
2021/06/24 01:57:39;;;;;;;;;;;14.60;99.90;;;;;;5084020;28;20031;-49
2021/06/24 02:00:09;;;;;;;;;;;14.60;99.90;;;;;;5075666;28;20390;-51
2021/06/24 02:02:35;;;;;;;;;;;14.60;99.90;;;;;;5065541;28;19916;-52
2021/06/24 02:05:01;;;;;;;;;;;14.60;99.90;;;;;;5081588;28;19912;-57
2021/06/24 02:07:26;;;;;;;;;;;14.50;99.90;;;;;;5075531;28;19912;-50
2021/06/24 02:09:52;;;;;;;;;;;14.60;99.90;;;;;;5081575;28;19908;-51
2021/06/24 02:12:18;;;;;;;;;;;14.50;99.90;;;;;;5084463;28;19999;-48
2021/06/24 02:14:43;;;;;;;;;;;14.50;99.90;;;;;;5079866;28;19913;-48
2021/06/24 02:17:08;;;;;;;;;;;14.50;99.90;;;;;;5083270;28;19916;-53
2021/06/24 02:19:34;;;;;;;;;;;14.50;99.90;;;;;;5084495;28;19917;-48
2021/06/24 02:21:59;;;;;;;;;;;14.50;99.90;;;;;;5082022;28;19909;-49
2021/06/24 02:24:25;;;;;;;;;;;14.50;99.90;;;;;;5068237;28;19912;-55
2021/06/24 02:26:50;;;;;;;;;;;14.50;99.90;;;;;;5080038;28;20322;-55
2021/06/24 02:29:16;;;;;;;;;;;14.50;99.90;;;;;;5065770;28;19908;-50
2021/06/24 02:31:42;;;;;;;;;;;14.40;99.90;;;;;;5082953;28;20286;-48
2021/06/24 02:34:07;;;;;;;;;;;14.40;99.90;;;;;;5082490;28;20180;-54
2021/06/24 02:36:33;;;;;;;;;;;14.50;99.90;;;;;;5084354;28;19908;-55
2021/06/24 02:38:58;;;;;;;;;;;14.40;99.90;;;;;;5081361;28;19909;-49
2021/06/24 02:41:24;;;;;;;;;;;14.40;99.90;;;;;;5083553;28;19915;-51
2021/06/24 02:43:49;;;;;;;;;;;14.40;99.90;;;;;;5081077;28;19908;-56
2021/06/24 02:46:15;;;;;;;;;;;14.40;99.90;;;;;;5083384;28;19918;-51
2021/06/24 02:48:41;;;;;;;;;;;14.40;99.90;;;;;;5083333;28;19913;-49
2021/06/24 02:51:06;;;;;;;;;;;14.40;99.90;;;;;;5082082;28;19915;-48
2021/06/24 02:53:32;;;;;;;;;;;14.40;99.90;;;;;;5085244;28;19999;-51
2021/06/24 02:55:57;;;;;;;;;;;14.40;99.90;;;;;;5080586;28;19913;-51
2021/06/24 02:58:23;;;;;;;;;;;14.30;99.90;;;;;;5082750;28;20328;-49
2021/06/24 03:00:48;;;;;;;;;;;14.40;99.90;;;;;;5080424;28;19916;-51
2021/06/24 03:03:14;;;;;;;;;;;14.30;99.90;;;;;;5067704;28;19908;-54
2021/06/24 03:05:39;;;;;;;;;;;14.30;99.90;;;;;;5082662;28;20347;-50
2021/06/24 03:08:05;;;;;;;;;;;14.30;99.90;;;;;;5081527;28;20425;-49
2021/06/24 03:10:32;;;;;;;;;;;14.20;99.90;;;;;;5066685;28;19908;-50
2021/06/24 03:12:58;;;;;;;;;;;14.20;99.90;;;;;;5080498;28;19909;-50
2021/06/24 03:15:24;;;;;;;;;;;14.20;99.90;;;;;;5082720;28;19908;-49
2021/06/24 03:17:50;;;;;;;;;;;14.30;99.90;;;;;;5081794;28;19929;-54
2021/06/24 03:20:16;;;;;;;;;;;14.30;99.90;;;;;;5082721;28;19915;-48
2021/06/24 03:22:41;;;;;;;;;;;14.30;99.90;;;;;;5083360;28;20286;-49
2021/06/24 03:25:07;;;;;;;;;;;14.30;99.90;;;;;;5081580;28;19913;-50
2021/06/24 03:27:33;;;;;;;;;;;14.30;99.90;;;;;;5082310;28;19912;-52
2021/06/24 03:29:59;;;;;;;;;;;14.30;99.90;;;;;;5080621;28;19915;-57
2021/06/24 03:32:25;;;;;;;;;;;14.30;99.90;;;;;;5082237;28;20472;-54
2021/06/24 03:34:50;;;;;;;;;;;14.30;99.90;;;;;;5081086;28;19909;-51
2021/06/24 03:37:15;;;;;;;;;;;14.30;99.90;;;;;;5082325;28;19908;-53
2021/06/24 03:39:41;;;;;;;;;;;14.20;99.90;;;;;;5083462;28;19915;-53
2021/06/24 03:42:07;;;;;;;;;;;14.20;99.90;;;;;;5081220;28;20341;-50
2021/06/24 03:44:32;;;;;;;;;;;14.20;99.90;;;;;;5082371;28;19908;-51
2021/06/24 03:46:58;;;;;;;;;;;14.20;99.90;;;;;;5080448;28;20298;-52
2021/06/24 03:49:23;;;;;;;;;;;14.30;99.90;;;;;;5082291;28;19913;-56
2021/06/24 03:51:49;;;;;;;;;;;14.30;99.90;;;;;;5081129;28;19908;-55
2021/06/24 03:54:14;;;;;;;;;;;14.30;99.90;;;;;;5082190;28;19969;-50
2021/06/24 03:56:40;;;;;;;;;;;14.30;99.90;;;;;;5080533;28;20282;-55
2021/06/24 03:59:06;;;;;;;;;;;14.30;99.90;;;;;;5080923;28;19912;-53
2021/06/24 04:01:31;;;;;;;;;;;14.30;99.90;;;;;;5081940;28;19908;-50
2021/06/24 04:03:57;;;;;;;;;;;14.30;99.90;;;;;;5080234;28;20323;-51
2021/06/24 04:06:23;;;;;;;;;;;14.30;99.90;;;;;;5081871;28;20278;-49
2021/06/24 04:08:48;;;;;;;;;;;14.40;99.90;;;;;;5081058;28;20380;-53
2021/06/24 04:11:14;;;;;;;;;;;14.40;99.90;;;;;;5081339;28;19916;-49
2021/06/24 04:13:39;;;;;;;;;;;14.40;99.90;;;;;;5062658;28;19908;-48
2021/06/24 04:16:08;;;;;;;;;;;14.50;99.90;;;;;;5081047;28;19916;-49
2021/06/24 04:18:34;;;;;;;;;;;14.40;99.90;;;;;;5081995;28;19997;-52
2021/06/24 04:20:59;;;;;;;;;;;14.50;99.90;;;;;;5081640;28;19915;-54
2021/06/24 04:23:25;;;;;;;;;;;14.50;99.90;;;;;;5081671;28;19908;-51
2021/06/24 04:25:50;;;;;;;;;;;14.50;99.90;;;;;;5081197;28;19908;-53
2021/06/24 04:28:16;;;;;;;;;;;14.50;99.90;;;;;;5080260;28;20009;-53
2021/06/24 04:30:41;;;;;;;;;;;14.40;99.90;;;;;;5081806;28;20015;-52
2021/06/24 04:33:07;;;;;;;;;;;14.40;99.90;;;;;;5080277;28;19963;-51
2021/06/24 04:35:33;;;;;;;;;;;14.40;99.90;;;;;;5081383;28;20285;-54
2021/06/24 04:37:59;;;;;;;;;;;14.40;99.90;;;;;;5063247;28;20409;-51
2021/06/24 04:40:25;;;;;;;;;;;14.40;99.90;;;;;;5081782;28;20271;-54
2021/06/24 04:42:50;;;;;;;;;;;14.50;99.90;;;;;;5081613;28;19973;-49
2021/06/24 04:45:16;;;;;;;;;;;14.50;99.90;;;;;;5079992;28;20263;-52
2021/06/24 04:47:41;;;;;;;;;;;14.50;99.90;;;;;;5081649;28;20389;-54
2021/06/24 04:50:07;;;;;;;;;;;14.50;99.90;;;;;;5080702;28;19955;-56
2021/06/24 04:52:33;;;;;;;;;;;14.50;99.90;;;;;;5081404;28;19962;-50
2021/06/24 04:54:58;;;;;;;;;;;14.60;99.90;;;;;;5080188;28;20495;-48
2021/06/24 04:57:24;;;;;;;;;;;14.60;99.90;;;;;;5100947;22;19916;-59
2021/06/24 04:59:49;;;;;;;;;;;14.60;99.90;;;;;;5041312;28;19917;-58
2021/06/24 05:02:17;;;;;;;;;;;14.50;99.90;;;;;;5040007;28;19909;-57
2021/06/24 05:04:42;;;;;;;;;;;14.60;99.90;;;;;;5023399;28;20365;-56
2021/06/24 05:07:10;;;;;;;;;;;14.60;99.90;;;;;;5040624;28;19963;-57
2021/06/24 05:09:39;;;;;;;;;;;14.70;99.90;;;;;;5061382;28;20004;-57
2021/06/24 05:12:05;;;;;;;;;;;14.70;99.90;;;;;;5059395;28;19913;-58
2021/06/24 05:14:31;;;;;;;;;;;14.80;99.90;;;;;;5056975;28;20353;-56
2021/06/24 05:16:56;;;;;;;;;;;14.90;99.90;;;;;;5064293;28;20004;-56
2021/06/24 05:19:22;;;;;;;;;;;14.90;99.90;;;;;;5039889;28;19916;-58
2021/06/24 05:21:47;;;;;;;;;;;15.00;99.90;;;;;;5066086;28;19916;-55
2021/06/24 05:24:13;;;;;;;;;;;15.00;99.90;;;;;;5060379;28;19931;-58
2021/06/24 05:26:39;;;;;;;;;;;15.00;99.90;;;;;;5061309;28;20489;-57
2021/06/24 05:29:05;;;;;;;;;;;15.00;99.90;;;;;;5067894;28;20381;-57
2021/06/24 05:31:31;;;;;;;;;;;15.00;99.90;;;;;;5061141;28;19962;-57
2021/06/24 05:33:57;;;;;;;;;;;15.10;99.90;;;;;;5050603;28;19974;-62
2021/06/24 05:36:22;;;;;;;;;;;15.10;99.90;;;;;;5060857;28;20363;-59
2021/06/24 05:38:48;;;;;;;;;;;15.20;99.90;;;;;;5069219;28;20489;-59
2021/06/24 05:41:14;;;;;;;;;;;15.30;99.90;;;;;;5060994;28;19909;-60
2021/06/24 05:43:39;;;;;;;;;;;15.30;99.90;;;;;;5061347;28;20019;-59
2021/06/24 05:46:05;;;;;;;;;;;15.40;99.90;;;;;;5067579;28;20386;-57
2021/06/24 05:48:32;;;;;;;;;;;15.40;99.90;;;;;;5060928;28;19913;-58
2021/06/24 05:50:58;;;;;;;;;;;15.50;99.90;;;;;;5050289;28;19931;-58
2021/06/24 05:53:24;;;;;;;;;;;15.60;99.90;;;;;;5060972;28;20422;-58
2021/06/24 05:58:16;;;;;;;;;;;15.80;99.90;;;;;;5066246;28;19924;-58
2021/06/24 06:00:42;;;;;;;;;;;15.80;99.90;;;;;;5061105;28;19909;-59
2021/06/24 06:03:08;;;;;;;;;;;16.00;99.90;;;;;;5067537;28;20290;-59
2021/06/24 06:05:34;;;;;;;;;;;16.10;99.90;;;;;;5060489;28;19913;-59
2021/06/24 06:08:00;;;;;;;;;;;16.20;99.90;;;;;;5068052;28;19913;-58
2021/06/24 06:10:26;;;;;;;;;;;16.40;99.90;;;;;;5042874;28;19959;-57
2021/06/24 06:12:51;;;;;;;;;;;16.50;99.90;;;;;;5061243;28;19948;-58
2021/06/24 06:15:17;;;;;;;;;;;16.60;99.90;;;;;;5062684;28;19952;-55
2021/06/24 06:17:42;;;;;;;;;;;16.60;99.90;;;;;;5063521;28;19995;-58
2021/06/24 06:20:08;;;;;;;;;;;16.50;99.90;;;;;;5063210;28;19909;-58
2021/06/24 06:22:33;;;;;;;;;;;16.40;99.90;;;;;;5065754;28;20368;-58
2021/06/24 06:25:00;;;;;;;;;;;16.40;99.90;;;;;;5061671;28;19980;-58
2021/06/24 06:27:25;;;;;;;;;;;16.40;99.90;;;;;;5063658;28;20448;-55
2021/06/24 06:29:51;;;;;;;;;;;16.50;99.90;;;;;;5061737;28;19909;-55
2021/06/24 06:32:17;;;;;;;;;;;16.40;99.90;;;;;;5063522;28;19912;-58
2021/06/24 06:34:43;;;;;;;;;;;16.60;99.90;;;;;;5062451;28;19909;-56
2021/06/24 06:37:08;;;;;;;;;;;16.80;99.90;;;;;;5062711;28;19913;-58
2021/06/24 06:39:34;;;;;;;;;;;16.90;99.90;;;;;;5065474;28;19927;-58
2021/06/24 06:41:59;;;;;;;;;;;17.10;99.90;;;;;;5061991;28;20326;-58
2021/06/24 06:44:25;;;;;;;;;;;17.10;99.90;;;;;;5064671;28;20435;-58
2021/06/24 06:46:50;;;;;;;;;;;17.20;99.90;;;;;;5061463;28;19913;-59
2021/06/24 06:49:17;;;;;;;;;;;17.40;99.90;;;;;;5063257;28;19916;-60
2021/06/24 06:51:44;;;;;;;;;;;17.60;99.90;;;;;;5061565;28;20290;-60
2021/06/24 06:54:09;;;;;;;;;;;17.70;99.90;;;;;;5062372;28;19908;-58
2021/06/24 06:56:35;;;;;;;;;;;18.00;99.90;;;;;;5062285;28;20313;-61
2021/06/24 06:59:01;;;;;;;;;;;18.10;99.90;;;;;;5060992;28;20282;-60
2021/06/24 07:01:27;;;;;;;;;;;18.30;99.90;;;;;;5063030;28;20302;-59
2021/06/24 07:03:52;;;;;;;;;;;18.40;99.90;;;;;;5061126;28;19996;-61
2021/06/24 07:06:18;;;;;;;;;;;18.60;99.90;;;;;;5062578;28;19916;-59
2021/06/24 07:08:43;;;;;;;;;;;18.70;99.90;;;;;;5062782;28;19913;-61
2021/06/24 07:11:09;;;;;;;;;;;18.80;99.90;;;;;;5062360;28;19917;-61
2021/06/24 07:13:35;;;;;;;;;;;18.90;99.90;;;;;;5062323;28;19909;-61
2021/06/24 07:16:01;;;;;;;;;;;18.90;99.90;;;;;;5061216;28;20459;-61
2021/06/24 07:18:26;;;;;;;;;;;19.10;99.90;;;;;;5062792;28;19943;-61
2021/06/24 07:20:53;;;;;;;;;;;19.20;99.90;;;;;;5062375;28;19954;-61
2021/06/24 07:23:19;;;;;;;;;;;19.30;99.90;;;;;;5062547;28;19921;-60
2021/06/24 07:25:44;;;;;;;;;;;19.40;99.90;;;;;;5062365;28;19912;-61
2021/06/24 07:28:10;;;;;;;;;;;19.70;99.90;;;;;;5060501;28;19913;-61
2021/06/24 07:30:36;;;;;;;;;;;19.90;99.90;;;;;;5062562;28;19915;-61
2021/06/24 07:33:01;;;;;;;;;;;20.10;99.90;;;;;;5061278;28;19908;-59
2021/06/24 07:35:27;;;;;;;;;;;20.30;99.90;;;;;;5062074;28;19934;-60
2021/06/24 07:37:53;;;;;;;;;;;20.50;99.90;;;;;;5044141;28;19909;-60
2021/06/24 07:40:18;;;;;;;;;;;20.70;99.90;;;;;;5062747;28;20341;-60
2021/06/24 07:42:44;;;;;;;;;;;20.90;99.90;;;;;;5062478;28;19912;-60
2021/06/24 07:45:10;;;;;;;;;;;21.10;99.90;;;;;;5060007;28;20405;-60
2021/06/24 07:47:35;;;;;;;;;;;21.20;99.90;;;;;;5061242;28;19912;-61
2021/06/24 07:50:19;;;;;;;;;;;21.40;99.90;;;;;;5061120;28;19936;-61
2021/06/24 07:52:45;;;;;;;;;;;21.70;99.90;;;;;;5062075;28;20002;-61
2021/06/24 07:55:11;;;;;;;;;;;21.90;99.90;;;;;;5058895;28;19956;-62
2021/06/24 07:57:36;;;;;;;;;;;22.20;99.90;;;;;;5062649;28;19913;-61
2021/06/24 08:00:03;;;;;;;;;;;22.40;98.90;;;;;;5060252;28;20343;-61
2021/06/24 08:02:29;;;;;;;;;;;22.40;99.00;;;;;;5062531;28;19909;-59
2021/06/24 08:04:54;;;;;;;;;;;22.10;98.20;;;;;;5061036;28;20030;-60
2021/06/24 08:07:20;;;;;;;;;;;21.90;99.90;;;;;;5054387;28;19936;-60
2021/06/24 08:09:45;;;;;;;;;;;21.60;99.00;;;;;;5053643;28;19912;-60
2021/06/24 08:12:11;;;;;;;;;;;21.60;99.90;;;;;;5064112;28;20017;-61
2021/06/24 08:14:36;;;;;;;;;;;21.50;99.60;;;;;;5061381;28;19915;-60
2021/06/24 08:17:02;;;;;;;;;;;21.40;99.90;;;;;;5063718;28;19909;-62
2021/06/24 08:19:27;;;;;;;;;;;21.30;99.90;;;;;;5058194;28;19908;-60
2021/06/24 08:21:58;;;;;;;;;;;21.30;99.90;;;;;;5064529;28;19908;-61
2021/06/24 08:24:24;;;;;;;;;;;21.10;98.10;;;;;;5058099;28;19912;-60
2021/06/24 08:26:49;;;;;;;;;;;21.10;98.80;;;;;;5065367;28;20429;-60
2021/06/24 08:29:15;;;;;;;;;;;21.20;99.90;;;;;;5058248;28;20582;-61
2021/06/24 08:31:41;;;;;;;;;;;21.60;99.90;;;;;;5065239;28;19934;-60
2021/06/24 08:34:07;;;;;;;;;;;21.80;99.10;;;;;;5059015;28;19909;-61
2021/06/24 08:36:32;;;;;;;;;;;21.90;99.90;;;;;;5057821;28;19915;-60
2021/06/24 08:38:58;;;;;;;;;;;21.90;99.90;;;;;;5064592;28;19909;-60
2021/06/24 08:41:25;;;;;;;;;;;21.60;97.70;;;;;;5058023;28;19967;-59
2021/06/24 08:43:51;;;;;;;;;;;21.50;98.80;;;;;;5047932;28;20386;-60
2021/06/24 08:46:17;;;;;;;;;;;21.50;99.60;;;;;;5039766;28;19959;-60
2021/06/24 08:48:43;;;;;;;;;;;21.40;99.90;;;;;;5058191;28;19944;-59
2021/06/24 08:51:09;;;;;;;;;;;21.30;99.90;;;;;;5045794;28;19939;-60
2021/06/24 08:53:34;;;;;;;;;;;21.30;98.30;;;;;;5040235;28;19962;-60
2021/06/24 08:56:00;;;;;;;;;;;21.30;99.90;;;;;;5065062;28;19908;-61
2021/06/24 08:58:26;;;;;;;;;;;21.40;99.80;;;;;;5059487;28;20383;-62
2021/06/24 09:00:52;;;;;;;;;;;21.30;99.00;;;;;;5069560;28;20371;-60
2021/06/24 09:03:19;;;;;;;;;;;21.30;99.90;;;;;;5061661;28;19909;-61
2021/06/24 09:05:59;;;;;;;;;;;21.20;99.90;;;;;;5061334;28;20186;-60
2021/06/24 09:08:38;;;;;;;;;;;21.20;99.90;;;;;;5057102;28;20403;-60
2021/06/24 09:11:10;;;;;;;;;;;21.10;99.10;;;;;;5064071;28;20375;-61
2021/06/24 09:13:36;;;;;;;;;;;21.10;99.90;;;;;;5065260;28;19913;-60
2021/06/24 09:16:03;;;;;;;;;;;21.10;99.90;;;;;;5063037;28;19915;-59
2021/06/24 09:18:29;;;;;;;;;;;21.20;99.70;;;;;;5064843;28;19970;-59
2021/06/24 09:20:55;;;;;;;;;;;21.30;99.90;;;;;;5062892;28;20006;-60
2021/06/24 09:23:24;;;;;;;;;;;21.40;99.90;;;;;;5064792;28;20381;-60
2021/06/24 09:26:07;;;;;;;;;;;21.60;99.90;;;;;;5045362;28;19909;-60
2021/06/24 09:28:52;;;;;;;;;;;21.70;99.90;;;;;;5064733;28;19912;-62
2021/06/24 09:31:25;;;;;;;;;;;21.80;99.90;;;;;;5064938;28;19961;-60
2021/06/24 09:33:51;;;;;;;;;;;22.00;99.00;;;;;;5064313;28;19908;-61
2021/06/24 09:36:33;;;;;;;;;;;22.10;99.90;;;;;;5062751;28;20278;-62
2021/06/24 09:38:58;;;;;;;;;;;22.10;98.90;;;;;;5045365;28;19948;-60
2021/06/24 09:41:24;;;;;;;;;;;22.20;98.80;;;;;;5064893;28;19947;-60
2021/06/24 09:43:49;;;;;;;;;;;22.20;98.30;;;;;;5064466;28;19920;-59
2021/06/24 09:46:19;;;;;;;;;;;22.20;99.00;;;;;;5064075;28;20344;-59
2021/06/24 09:48:45;;;;;;;;;;;22.20;99.20;;;;;;5064473;28;20015;-63
2021/06/24 09:51:16;;;;;;;;;;;22.10;98.20;;;;;;5060904;28;19909;-61
2021/06/24 09:53:49;;;;;;;;;;;21.90;99.40;;;;;;5066624;28;19909;-62
2021/06/24 09:56:35;;;;;;;;;;;21.90;99.90;;;;;;5056546;28;19913;-60
2021/06/24 09:59:05;;;;;;;;;;;21.90;99.80;;;;;;5049537;28;19973;-59
2021/06/24 10:01:36;;;;;;;;;;;21.90;99.20;;;;;;5060894;28;20021;-60
2021/06/24 10:04:03;;;;;;;;;;;21.70;97.90;;;;;;5068892;28;19909;-61
2021/06/24 10:06:28;;;;;;;;;;;21.50;98.80;;;;;;5060477;28;20360;-60
2021/06/24 10:08:55;;;;;;;;;;;21.50;99.40;;;;;;5061343;28;19912;-60
2021/06/24 10:11:22;;;;;;;;;;;21.50;99.80;;;;;;5065603;28;19909;-60
2021/06/24 10:13:48;;;;;;;;;;;21.60;99.90;;;;;;5042727;28;19931;-61
2021/06/24 10:16:15;;;;;;;;;;;21.70;99.90;;;;;;5065805;28;19913;-60
2021/06/24 10:18:43;;;;;;;;;;;21.80;99.70;;;;;;5062777;28;19908;-61
2021/06/24 10:21:09;;;;;;;;;;;21.80;99.90;;;;;;5063163;28;19917;-61
2021/06/24 10:23:35;;;;;;;;;;;21.70;99.60;;;;;;5063822;28;19912;-61
2021/06/24 10:26:01;;;;;;;;;;;21.70;99.80;;;;;;5044265;28;19909;-60
2021/06/24 10:28:26;;;;;;;;;;;21.60;99.10;;;;;;5063579;28;20426;-60
2021/06/24 10:30:52;;;;;;;;;;;21.50;99.90;;;;;;5063375;28;20375;-60
2021/06/24 10:33:17;;;;;;;;;;;21.50;99.90;;;;;;5045707;28;20050;-59
2021/06/24 10:35:47;;;;;;;;;;;21.50;99.90;;;;;;5062283;28;19912;-61
2021/06/24 10:38:13;;;;;;;;;;;21.20;99.90;;;;;;5063760;28;19915;-62
2021/06/24 10:40:40;;;;;;;;;;;21.40;99.90;;;;;;5063649;28;20367;-61
2021/06/24 10:43:05;;;;;;;;;;;21.30;99.90;;;;;;5062221;28;19917;-62
2021/06/24 10:45:31;;;;;;;;;;;21.50;99.70;;;;;;5063197;28;20405;-62
2021/06/24 10:47:58;;;;;;;;;;;21.50;99.10;;;;;;5062814;28;19920;-61
2021/06/24 10:50:30;;;;;;;;;;;21.50;99.80;;;;;;5063086;28;19909;-59
2021/06/24 10:53:19;;;;;;;;;;;21.70;99.90;;;;;;5061430;28;19924;-64
2021/06/24 10:55:50;;;;;;;;;;;21.90;98.90;;;;;;5062608;28;19919;-58
2021/06/24 10:58:19;;;;;;;;;;;22.00;98.40;;;;;;5045364;28;20014;-58
2021/06/24 11:00:44;;;;;;;;;;;21.90;98.50;;;;;;5063058;28;19912;-60
2021/06/24 11:03:11;;;;;;;;;;;21.90;98.60;;;;;;5062663;28;20348;-58
2021/06/24 11:05:39;;;;;;;;;;;22.00;99.40;;;;;;5044868;28;20379;-60
2021/06/24 11:08:10;;;;;;;;;;;21.90;99.40;;;;;;5060609;28;19916;-62
2021/06/24 11:10:51;;;;;;;;;;;21.90;98.90;;;;;;5064170;28;19912;-60
2021/06/24 11:13:45;;;;;;;;;;;21.80;98.80;;;;;;5038233;28;20367;-59
2021/06/24 11:16:17;;;;;;;;;;;21.70;99.10;;;;;;5064134;28;20405;-60
2021/06/24 11:19:01;;;;;;;;;;;21.70;99.40;;;;;;5061522;28;20022;-59
2021/06/24 11:21:30;;;;;;;;;;;21.70;99.40;;;;;;5035454;28;19908;-59
2021/06/24 11:23:59;;;;;;;;;;;21.60;99.20;;;;;;5061172;28;20417;-58
2021/06/24 11:26:24;;;;;;;;;;;21.70;99.20;;;;;;5062459;28;19916;-61
2021/06/24 11:28:55;;;;;;;;;;;21.80;99.90;;;;;;5062217;28;20276;-60
2021/06/24 11:31:38;;;;;;;;;;;22.00;98.90;;;;;;5062461;28;19915;-61
2021/06/24 11:34:28;;;;;;;;;;;22.10;97.40;;;;;;5042243;28;20454;-61
2021/06/24 11:36:51;;;;;;;;;;;22.20;99.80;;;;;;5064332;28;19916;-61
2021/06/24 11:39:23;;;;;;;;;;;22.40;96.10;;;;;;5040930;28;20263;-62
2021/06/24 11:41:52;;;;;;;;;;;22.40;98.00;;;;;;5066133;28;19915;-60
2021/06/24 11:44:53;;;;;;;;;;;22.40;96.60;;;;;;5054356;28;19909;-60
2021/06/24 11:47:20;;;;;;;;;;;22.50;98.40;;;;;;4970078;28;20427;-60
2021/06/24 12:03:23;;;;;;;;;;;23.00;96.10;;;;;;5062926;28;19909;-61
2021/06/24 12:05:52;;;;;;;;;;;22.80;94.60;;;;;;5062145;28;19908;-58
2021/06/24 12:08:25;;;;;;;;;;;22.80;96.70;;;;;;5058578;28;19913;-62
2021/06/24 12:11:02;;;;;;;;;;;22.90;96.60;;;;;;5065185;28;20393;-60
2021/06/24 12:13:31;;;;;;;;;;;23.00;95.50;;;;;;5058356;28;20324;-65
2021/06/24 12:15:59;;;;;;;;;;;23.10;96.00;;;;;;5061381;28;19909;-61
2021/06/24 12:18:57;;;;;;;;;;;23.20;95.10;;;;;;5061987;28;20523;-62
2021/06/24 12:21:22;;;;;;;;;;;23.50;97.40;;;;;;5020816;28;19917;-60
2021/06/24 12:23:48;;;;;;;;;;;23.90;93.70;;;;;;5060815;28;20291;-61
2021/06/24 12:26:15;;;;;;;;;;;24.00;94.60;;;;;;5049839;28;20006;-61
2021/06/24 12:28:41;;;;;;;;;;;24.00;95.00;;;;;;5061962;28;19916;-61
2021/06/24 12:31:17;;;;;;;;;;;23.80;93.70;;;;;;5061747;28;20338;-60
2021/06/24 12:33:43;;;;;;;;;;;23.80;93.50;;;;;;5064059;28;19909;-63
2021/06/24 12:36:09;;;;;;;;;;;23.90;93.30;;;;;;5063791;28;19917;-63
2021/06/24 12:38:35;;;;;;;;;;;24.00;93.20;;;;;;5066103;28;19912;-62
2021/06/24 12:41:08;;;;;;;;;;;23.80;94.20;;;;;;5064634;28;19913;-60
2021/06/24 12:43:34;;;;;;;;;;;24.00;95.00;;;;;;5065914;28;19915;-60
2021/06/24 12:46:00;;;;;;;;;;;24.00;94.10;;;;;;5065014;28;19915;-59
2021/06/24 12:48:26;;;;;;;;;;;24.00;93.20;;;;;;5065775;28;19919;-61
2021/06/24 12:50:51;;;;;;;;;;;23.80;91.50;;;;;;5064991;28;19909;-61
2021/06/24 12:53:26;;;;;;;;;;;23.80;93.10;;;;;;5064175;28;19913;-60
2021/06/24 12:55:52;;;;;;;;;;;23.50;90.40;;;;;;5065269;28;20131;-60
2021/06/24 12:58:31;;;;;;;;;;;22.90;92.40;;;;;;5064699;28;19916;-61
2021/06/24 13:01:12;;;;;;;;;;;22.90;96.50;;;;;;5046030;28;19914;-61
2021/06/24 13:03:43;;;;;;;;;;;23.00;96.00;;;;;;5063882;28;20359;-60
2021/06/24 13:06:18;;;;;;;;;;;23.10;96.00;;;;;;5062585;28;19917;-60
2021/06/24 13:08:54;;;;;;;;;;;23.20;93.30;;;;;;5039833;28;19909;-61
2021/06/24 13:11:21;;;;;;;;;;;23.30;93.30;;;;;;5056113;28;19909;-61
2021/06/24 13:13:57;;;;;;;;;;;23.40;94.90;;;;;;5043802;28;20299;-61
2021/06/24 13:16:43;;;;;;;;;;;23.40;93.90;;;;;;5054689;28;19909;-61
2021/06/24 13:19:10;;;;;;;;;;;23.30;94.00;;;;;;5045156;28;19908;-64
2021/06/24 13:21:54;;;;;;;;;;;23.20;95.00;;;;;;5065067;28;19908;-63
2021/06/24 13:24:19;;;;;;;;;;;23.00;92.70;;;;;;5063837;28;20006;-60
2021/06/24 13:26:45;;;;;;;;;;;22.90;94.30;;;;;;5064678;28;20016;-62
2021/06/24 13:29:28;;;;;;;;;;;23.00;94.00;;;;;;5064570;28;19923;-63
2021/06/24 13:31:55;;;;;;;;;;;23.30;94.70;;;;;;5064138;28;20333;-64
2021/06/24 13:34:22;;;;;;;;;;;23.50;93.80;;;;;;5061285;28;19989;-64
2021/06/24 13:36:48;;;;;;;;;;;23.80;94.10;;;;;;5067658;28;19916;-62
2021/06/24 13:39:33;;;;;;;;;;;23.70;91.90;;;;;;5061318;28;19941;-62
2021/06/24 13:41:59;;;;;;;;;;;23.70;93.50;;;;;;5068681;28;20313;-63
2021/06/24 13:44:24;;;;;;;;;;;23.90;92.80;;;;;;5060836;28;20024;-61
2021/06/24 13:46:51;;;;;;;;;;;23.60;94.00;;;;;;5051187;28;19919;-62
2021/06/24 13:49:18;;;;;;;;;;;23.50;91.90;;;;;;5060890;28;20283;-62
2021/06/24 13:51:46;;;;;;;;;;;23.50;93.80;;;;;;5060890;28;19999;-61
2021/06/24 13:54:12;;;;;;;;;;;23.60;93.60;;;;;;5049557;28;19909;-62
2021/06/24 13:56:38;;;;;;;;;;;23.60;93.30;;;;;;5060521;28;20000;-61
2021/06/24 13:59:04;;;;;;;;;;;23.80;94.60;;;;;;5068236;28;20011;-62
2021/06/24 14:01:30;;;;;;;;;;;23.80;92.70;;;;;;5060865;28;19915;-64
2021/06/24 14:03:55;;;;;;;;;;;23.70;93.20;;;;;;5069345;28;20374;-64
2021/06/24 14:06:23;;;;;;;;;;;23.60;92.80;;;;;;5060782;28;19996;-61
2021/06/24 14:08:48;;;;;;;;;;;23.50;92.60;;;;;;5042846;28;20272;-60
2021/06/24 14:11:15;;;;;;;;;;;23.40;93.10;;;;;;5051096;28;19974;-62
2021/06/24 14:13:41;;;;;;;;;;;23.40;93.40;;;;;;5062227;28;19921;-61
2021/06/24 14:16:10;;;;;;;;;;;23.40;94.00;;;;;;5059892;28;19909;-61
2021/06/24 14:18:35;;;;;;;;;;;23.50;94.30;;;;;;5063621;28;19908;-63
2021/06/24 14:21:02;;;;;;;;;;;23.60;92.80;;;;;;5062024;28;19909;-61
2021/06/24 14:23:28;;;;;;;;;;;23.60;94.20;;;;;;5057851;28;19991;-63
2021/06/24 14:25:53;;;;;;;;;;;23.60;93.10;;;;;;5060959;28;19915;-62
2021/06/24 14:28:19;;;;;;;;;;;23.50;94.00;;;;;;5063710;28;20042;-63
2021/06/24 14:30:44;;;;;;;;;;;23.40;92.50;;;;;;5062918;28;19970;-63
2021/06/24 14:33:10;;;;;;;;;;;23.40;93.50;;;;;;5063467;28;19909;-63